sensor_id;sensor_type;location;lat;lon;timestamp;temperature;humidity
9925;DHT22;5001;51.674;7.868;2023-12-20T00:02:19;7.10;1.00
9925;DHT22;5001;51.674;7.868;2023-12-20T00:04:46;7.10;1.00
9925;DHT22;5001;51.674;7.868;2023-12-20T00:07:13;7.00;1.00
9925;DHT22;5001;51.674;7.868;2023-12-20T00:09:41;7.00;1.00
9925;DHT22;5001;51.674;7.868;2023-12-20T00:12:08;6.90;1.00
9925;DHT22;5001;51.674;7.868;2023-12-20T00:14:36;6.90;1.00
9925;DHT22;5001;51.674;7.868;2023-12-20T00:17:03;6.90;1.00
9925;DHT22;5001;51.674;7.868;2023-12-20T00:19:30;6.90;1.00
9925;DHT22;5001;51.674;7.868;2023-12-20T00:21:57;6.90;1.00
9925;DHT22;5001;51.674;7.868;2023-12-20T00:24:26;7.00;1.00
9925;DHT22;5001;51.674;7.868;2023-12-20T00:26:53;7.00;1.00
9925;DHT22;5001;51.674;7.868;2023-12-20T00:29:20;6.90;1.00
9925;DHT22;5001;51.674;7.868;2023-12-20T00:31:47;6.90;1.00
9925;DHT22;5001;51.674;7.868;2023-12-20T00:34:14;6.90;1.00
9925;DHT22;5001;51.674;7.868;2023-12-20T00:36:41;6.80;1.00
9925;DHT22;5001;51.674;7.868;2023-12-20T00:39:08;6.80;1.00
9925;DHT22;5001;51.674;7.868;2023-12-20T00:41:35;6.80;1.00
9925;DHT22;5001;51.674;7.868;2023-12-20T00:44:02;6.80;1.00
9925;DHT22;5001;51.674;7.868;2023-12-20T00:46:29;6.80;1.00
9925;DHT22;5001;51.674;7.868;2023-12-20T00:48:56;6.80;1.00
9925;DHT22;5001;51.674;7.868;2023-12-20T00:51:23;6.70;1.00
9925;DHT22;5001;51.674;7.868;2023-12-20T00:53:51;6.80;1.00
9925;DHT22;5001;51.674;7.868;2023-12-20T00:56:21;6.80;1.00
9925;DHT22;5001;51.674;7.868;2023-12-20T00:58:48;6.80;1.00
9925;DHT22;5001;51.674;7.868;2023-12-20T01:01:15;6.80;1.00
9925;DHT22;5001;51.674;7.868;2023-12-20T01:03:42;6.70;1.00
9925;DHT22;5001;51.674;7.868;2023-12-20T01:06:10;6.70;1.00
9925;DHT22;5001;51.674;7.868;2023-12-20T01:08:37;6.70;1.00
9925;DHT22;5001;51.674;7.868;2023-12-20T01:11:04;6.70;1.00
9925;DHT22;5001;51.674;7.868;2023-12-20T01:13:32;6.70;1.00
9925;DHT22;5001;51.674;7.868;2023-12-20T01:15:59;6.70;1.00
9925;DHT22;5001;51.674;7.868;2023-12-20T01:18:26;6.70;1.00
9925;DHT22;5001;51.674;7.868;2023-12-20T01:20:53;6.80;1.00
9925;DHT22;5001;51.674;7.868;2023-12-20T01:23:20;6.80;1.00
9925;DHT22;5001;51.674;7.868;2023-12-20T01:25:48;6.80;1.00
9925;DHT22;5001;51.674;7.868;2023-12-20T01:28:15;6.80;1.00
9925;DHT22;5001;51.674;7.868;2023-12-20T01:30:42;6.90;1.00
9925;DHT22;5001;51.674;7.868;2023-12-20T01:33:10;6.90;1.00
9925;DHT22;5001;51.674;7.868;2023-12-20T01:35:37;6.90;1.00
9925;DHT22;5001;51.674;7.868;2023-12-20T01:38:04;6.80;1.00
9925;DHT22;5001;51.674;7.868;2023-12-20T01:40:31;6.70;1.00
9925;DHT22;5001;51.674;7.868;2023-12-20T01:43:05;6.50;1.00
9925;DHT22;5001;51.674;7.868;2023-12-20T01:45:33;6.30;1.00
9925;DHT22;5001;51.674;7.868;2023-12-20T01:48:00;6.20;1.00
9925;DHT22;5001;51.674;7.868;2023-12-20T01:50:30;6.10;1.00
9925;DHT22;5001;51.674;7.868;2023-12-20T01:53:00;6.00;1.00
9925;DHT22;5001;51.674;7.868;2023-12-20T01:55:30;5.90;1.00
9925;DHT22;5001;51.674;7.868;2023-12-20T01:57:58;5.90;1.00
9925;DHT22;5001;51.674;7.868;2023-12-20T02:00:27;6.00;1.00
9925;DHT22;5001;51.674;7.868;2023-12-20T02:02:54;5.90;1.00
9925;DHT22;5001;51.674;7.868;2023-12-20T02:05:22;5.90;1.00
9925;DHT22;5001;51.674;7.868;2023-12-20T02:07:49;5.80;1.00
9925;DHT22;5001;51.674;7.868;2023-12-20T02:10:16;5.80;1.00
9925;DHT22;5001;51.674;7.868;2023-12-20T02:12:44;5.80;1.00
9925;DHT22;5001;51.674;7.868;2023-12-20T02:15:11;5.70;1.00
9925;DHT22;5001;51.674;7.868;2023-12-20T02:17:38;5.70;1.00
9925;DHT22;5001;51.674;7.868;2023-12-20T02:20:06;5.80;1.00
9925;DHT22;5001;51.674;7.868;2023-12-20T02:22:34;6.00;1.00
9925;DHT22;5001;51.674;7.868;2023-12-20T02:25:01;6.00;1.00
9925;DHT22;5001;51.674;7.868;2023-12-20T02:27:28;6.00;1.00
9925;DHT22;5001;51.674;7.868;2023-12-20T02:29:56;6.00;99.90
9925;DHT22;5001;51.674;7.868;2023-12-20T02:32:24;5.90;1.00
9925;DHT22;5001;51.674;7.868;2023-12-20T02:34:54;6.00;99.90
9925;DHT22;5001;51.674;7.868;2023-12-20T02:37:22;6.10;99.90
9925;DHT22;5001;51.674;7.868;2023-12-20T02:39:49;6.10;99.90
9925;DHT22;5001;51.674;7.868;2023-12-20T02:42:16;6.20;99.90
9925;DHT22;5001;51.674;7.868;2023-12-20T02:44:43;6.20;99.90
9925;DHT22;5001;51.674;7.868;2023-12-20T02:47:10;6.20;99.90
9925;DHT22;5001;51.674;7.868;2023-12-20T02:49:37;6.20;99.90
9925;DHT22;5001;51.674;7.868;2023-12-20T02:52:05;6.20;99.90
9925;DHT22;5001;51.674;7.868;2023-12-20T02:54:32;6.20;99.90
9925;DHT22;5001;51.674;7.868;2023-12-20T02:56:59;6.20;99.90
9925;DHT22;5001;51.674;7.868;2023-12-20T02:59:26;6.20;99.90
9925;DHT22;5001;51.674;7.868;2023-12-20T03:05:52;6.20;99.90
9925;DHT22;5001;51.674;7.868;2023-12-20T03:08:19;6.20;99.90
9925;DHT22;5001;51.674;7.868;2023-12-20T03:10:46;6.20;99.90
9925;DHT22;5001;51.674;7.868;2023-12-20T03:13:13;6.30;99.90
9925;DHT22;5001;51.674;7.868;2023-12-20T03:15:41;6.30;99.90
9925;DHT22;5001;51.674;7.868;2023-12-20T03:18:08;6.40;99.90
9925;DHT22;5001;51.674;7.868;2023-12-20T03:20:35;6.40;99.90
9925;DHT22;5001;51.674;7.868;2023-12-20T03:23:02;6.40;99.90
9925;DHT22;5001;51.674;7.868;2023-12-20T03:25:29;6.30;99.90
9925;DHT22;5001;51.674;7.868;2023-12-20T03:27:56;6.30;99.90
9925;DHT22;5001;51.674;7.868;2023-12-20T03:30:23;6.30;99.90
9925;DHT22;5001;51.674;7.868;2023-12-20T03:32:50;6.30;99.90
9925;DHT22;5001;51.674;7.868;2023-12-20T03:35:19;6.30;99.90
9925;DHT22;5001;51.674;7.868;2023-12-20T03:37:46;6.40;99.90
9925;DHT22;5001;51.674;7.868;2023-12-20T03:40:13;6.40;99.90
9925;DHT22;5001;51.674;7.868;2023-12-20T03:42:40;6.40;99.90
9925;DHT22;5001;51.674;7.868;2023-12-20T03:45:08;6.30;99.90
9925;DHT22;5001;51.674;7.868;2023-12-20T03:47:35;6.10;99.90
9925;DHT22;5001;51.674;7.868;2023-12-20T03:50:02;5.90;99.90
9925;DHT22;5001;51.674;7.868;2023-12-20T03:52:29;5.90;99.90
9925;DHT22;5001;51.674;7.868;2023-12-20T03:54:56;6.00;99.90
9925;DHT22;5001;51.674;7.868;2023-12-20T03:57:23;6.10;99.90
9925;DHT22;5001;51.674;7.868;2023-12-20T03:59:50;6.20;99.90
9925;DHT22;5001;51.674;7.868;2023-12-20T04:02:17;6.30;99.90
9925;DHT22;5001;51.674;7.868;2023-12-20T04:04:44;6.30;99.90
9925;DHT22;5001;51.674;7.868;2023-12-20T04:07:11;6.30;99.90
9925;DHT22;5001;51.674;7.868;2023-12-20T04:09:40;6.30;99.90
9925;DHT22;5001;51.674;7.868;2023-12-20T04:12:07;6.20;99.90
9925;DHT22;5001;51.674;7.868;2023-12-20T04:14:34;6.20;99.90
9925;DHT22;5001;51.674;7.868;2023-12-20T04:17:01;6.00;99.90
9925;DHT22;5001;51.674;7.868;2023-12-20T04:19:28;6.00;99.90
9925;DHT22;5001;51.674;7.868;2023-12-20T04:21:55;6.00;99.90
9925;DHT22;5001;51.674;7.868;2023-12-20T04:24:22;5.90;99.90
9925;DHT22;5001;51.674;7.868;2023-12-20T04:26:49;5.90;99.90
9925;DHT22;5001;51.674;7.868;2023-12-20T04:29:16;5.80;99.90
9925;DHT22;5001;51.674;7.868;2023-12-20T04:31:43;5.80;99.90
9925;DHT22;5001;51.674;7.868;2023-12-20T04:34:10;6.00;99.90
9925;DHT22;5001;51.674;7.868;2023-12-20T04:36:37;6.00;99.90
9925;DHT22;5001;51.674;7.868;2023-12-20T04:39:04;6.00;99.90
9925;DHT22;5001;51.674;7.868;2023-12-20T04:41:31;6.10;99.90
9925;DHT22;5001;51.674;7.868;2023-12-20T04:43:58;6.10;99.90
9925;DHT22;5001;51.674;7.868;2023-12-20T04:46:25;6.20;99.90
9925;DHT22;5001;51.674;7.868;2023-12-20T04:48:52;6.10;99.90
9925;DHT22;5001;51.674;7.868;2023-12-20T04:51:20;6.00;99.90
9925;DHT22;5001;51.674;7.868;2023-12-20T04:53:46;6.00;99.90
9925;DHT22;5001;51.674;7.868;2023-12-20T04:56:13;5.90;99.90
9925;DHT22;5001;51.674;7.868;2023-12-20T04:58:42;5.90;99.90
9925;DHT22;5001;51.674;7.868;2023-12-20T05:01:09;6.00;99.90
9925;DHT22;5001;51.674;7.868;2023-12-20T05:03:36;6.10;99.90
9925;DHT22;5001;51.674;7.868;2023-12-20T05:06:03;6.10;99.90
9925;DHT22;5001;51.674;7.868;2023-12-20T05:08:30;6.20;99.90
9925;DHT22;5001;51.674;7.868;2023-12-20T05:10:57;6.20;99.90
9925;DHT22;5001;51.674;7.868;2023-12-20T05:13:24;6.30;99.90
9925;DHT22;5001;51.674;7.868;2023-12-20T05:16:04;6.30;99.90
9925;DHT22;5001;51.674;7.868;2023-12-20T05:18:31;6.30;99.90
9925;DHT22;5001;51.674;7.868;2023-12-20T05:20:58;6.40;99.90
9925;DHT22;5001;51.674;7.868;2023-12-20T05:23:25;6.40;99.90
9925;DHT22;5001;51.674;7.868;2023-12-20T05:25:52;6.40;99.90
9925;DHT22;5001;51.674;7.868;2023-12-20T05:28:19;6.30;99.90
9925;DHT22;5001;51.674;7.868;2023-12-20T05:30:46;6.30;99.90
9925;DHT22;5001;51.674;7.868;2023-12-20T05:33:13;6.20;99.90
9925;DHT22;5001;51.674;7.868;2023-12-20T05:35:41;6.10;99.90
9925;DHT22;5001;51.674;7.868;2023-12-20T05:38:10;6.10;99.90
9925;DHT22;5001;51.674;7.868;2023-12-20T05:40:37;6.10;99.90
9925;DHT22;5001;51.674;7.868;2023-12-20T05:43:04;6.10;99.90
9925;DHT22;5001;51.674;7.868;2023-12-20T05:45:31;6.10;99.90
9925;DHT22;5001;51.674;7.868;2023-12-20T05:47:58;6.00;99.90
9925;DHT22;5001;51.674;7.868;2023-12-20T05:50:25;6.10;99.90
9925;DHT22;5001;51.674;7.868;2023-12-20T05:52:52;5.90;99.90
9925;DHT22;5001;51.674;7.868;2023-12-20T05:55:20;5.90;99.90
9925;DHT22;5001;51.674;7.868;2023-12-20T05:57:47;5.90;99.90
9925;DHT22;5001;51.674;7.868;2023-12-20T06:00:15;6.00;99.90
9925;DHT22;5001;51.674;7.868;2023-12-20T06:02:43;6.00;99.90
9925;DHT22;5001;51.674;7.868;2023-12-20T06:05:10;6.10;99.90
9925;DHT22;5001;51.674;7.868;2023-12-20T06:07:37;6.20;99.90
9925;DHT22;5001;51.674;7.868;2023-12-20T06:10:04;6.20;99.90
9925;DHT22;5001;51.674;7.868;2023-12-20T06:12:33;6.20;99.90
9925;DHT22;5001;51.674;7.868;2023-12-20T06:15:03;6.20;99.90
9925;DHT22;5001;51.674;7.868;2023-12-20T06:17:30;6.20;99.90
9925;DHT22;5001;51.674;7.868;2023-12-20T06:19:58;6.20;99.90
9925;DHT22;5001;51.674;7.868;2023-12-20T06:22:25;6.20;99.90
9925;DHT22;5001;51.674;7.868;2023-12-20T06:24:52;6.20;99.90
9925;DHT22;5001;51.674;7.868;2023-12-20T06:27:19;6.20;99.90
9925;DHT22;5001;51.674;7.868;2023-12-20T06:29:46;6.20;99.90
9925;DHT22;5001;51.674;7.868;2023-12-20T06:32:13;6.30;99.90
9925;DHT22;5001;51.674;7.868;2023-12-20T06:34:40;6.30;99.90
9925;DHT22;5001;51.674;7.868;2023-12-20T06:37:07;6.30;99.90
9925;DHT22;5001;51.674;7.868;2023-12-20T06:39:34;6.40;99.90
9925;DHT22;5001;51.674;7.868;2023-12-20T06:42:01;6.30;99.90
9925;DHT22;5001;51.674;7.868;2023-12-20T06:44:28;6.40;99.90
9925;DHT22;5001;51.674;7.868;2023-12-20T06:46:55;6.40;99.90
9925;DHT22;5001;51.674;7.868;2023-12-20T06:49:22;6.30;99.90
9925;DHT22;5001;51.674;7.868;2023-12-20T06:51:49;6.40;99.90
9925;DHT22;5001;51.674;7.868;2023-12-20T06:54:16;6.30;99.90
9925;DHT22;5001;51.674;7.868;2023-12-20T06:56:43;6.40;99.90
9925;DHT22;5001;51.674;7.868;2023-12-20T06:59:10;6.40;99.90
9925;DHT22;5001;51.674;7.868;2023-12-20T07:01:37;6.30;99.90
9925;DHT22;5001;51.674;7.868;2023-12-20T07:04:04;6.30;99.90
9925;DHT22;5001;51.674;7.868;2023-12-20T07:06:31;6.30;99.90
9925;DHT22;5001;51.674;7.868;2023-12-20T07:08:58;6.30;99.90
9925;DHT22;5001;51.674;7.868;2023-12-20T07:11:25;6.40;99.90
9925;DHT22;5001;51.674;7.868;2023-12-20T07:13:53;6.40;99.90
9925;DHT22;5001;51.674;7.868;2023-12-20T07:16:21;6.40;99.90
9925;DHT22;5001;51.674;7.868;2023-12-20T07:18:49;6.40;99.90
9925;DHT22;5001;51.674;7.868;2023-12-20T07:21:16;6.40;99.90
9925;DHT22;5001;51.674;7.868;2023-12-20T07:23:43;6.40;99.90
9925;DHT22;5001;51.674;7.868;2023-12-20T07:26:10;6.50;99.90
9925;DHT22;5001;51.674;7.868;2023-12-20T07:28:38;6.50;99.90
9925;DHT22;5001;51.674;7.868;2023-12-20T07:31:05;6.40;99.90
9925;DHT22;5001;51.674;7.868;2023-12-20T07:33:32;6.40;99.90
9925;DHT22;5001;51.674;7.868;2023-12-20T07:36:06;6.50;99.90
9925;DHT22;5001;51.674;7.868;2023-12-20T07:38:33;6.50;99.90
9925;DHT22;5001;51.674;7.868;2023-12-20T07:41:00;6.50;99.90
9925;DHT22;5001;51.674;7.868;2023-12-20T07:43:27;6.50;99.90
9925;DHT22;5001;51.674;7.868;2023-12-20T07:45:54;6.50;99.90
9925;DHT22;5001;51.674;7.868;2023-12-20T07:48:21;6.50;99.90
9925;DHT22;5001;51.674;7.868;2023-12-20T07:50:48;6.50;99.90
9925;DHT22;5001;51.674;7.868;2023-12-20T07:53:15;6.50;99.90
9925;DHT22;5001;51.674;7.868;2023-12-20T07:55:42;6.50;99.90
9925;DHT22;5001;51.674;7.868;2023-12-20T07:58:10;6.50;99.90
9925;DHT22;5001;51.674;7.868;2023-12-20T08:00:37;6.50;99.90
9925;DHT22;5001;51.674;7.868;2023-12-20T08:03:04;6.50;99.90
9925;DHT22;5001;51.674;7.868;2023-12-20T08:05:31;6.50;99.90
9925;DHT22;5001;51.674;7.868;2023-12-20T08:07:59;6.50;99.90
9925;DHT22;5001;51.674;7.868;2023-12-20T08:10:26;6.60;99.90
9925;DHT22;5001;51.674;7.868;2023-12-20T08:12:54;6.50;99.90
9925;DHT22;5001;51.674;7.868;2023-12-20T08:15:21;6.60;99.90
9925;DHT22;5001;51.674;7.868;2023-12-20T08:17:48;6.60;99.90
9925;DHT22;5001;51.674;7.868;2023-12-20T08:20:15;6.60;99.90
9925;DHT22;5001;51.674;7.868;2023-12-20T08:22:52;6.60;99.90
9925;DHT22;5001;51.674;7.868;2023-12-20T08:25:19;6.70;99.90
9925;DHT22;5001;51.674;7.868;2023-12-20T08:27:46;6.60;99.90
9925;DHT22;5001;51.674;7.868;2023-12-20T08:30:13;6.60;99.90
9925;DHT22;5001;51.674;7.868;2023-12-20T08:32:40;6.70;99.90
9925;DHT22;5001;51.674;7.868;2023-12-20T08:35:07;6.70;99.90
9925;DHT22;5001;51.674;7.868;2023-12-20T08:37:35;6.70;99.90
9925;DHT22;5001;51.674;7.868;2023-12-20T08:40:03;6.80;99.90
9925;DHT22;5001;51.674;7.868;2023-12-20T08:42:30;6.70;99.90
9925;DHT22;5001;51.674;7.868;2023-12-20T08:44:58;6.70;99.90
9925;DHT22;5001;51.674;7.868;2023-12-20T08:47:25;6.70;99.90
9925;DHT22;5001;51.674;7.868;2023-12-20T08:49:53;6.70;99.90
9925;DHT22;5001;51.674;7.868;2023-12-20T08:52:23;6.70;99.90
9925;DHT22;5001;51.674;7.868;2023-12-20T08:54:50;6.80;99.90
9925;DHT22;5001;51.674;7.868;2023-12-20T08:57:20;6.80;99.90
9925;DHT22;5001;51.674;7.868;2023-12-20T08:59:48;6.80;99.90
9925;DHT22;5001;51.674;7.868;2023-12-20T09:02:15;6.80;99.90
9925;DHT22;5001;51.674;7.868;2023-12-20T09:04:43;6.80;99.90
9925;DHT22;5001;51.674;7.868;2023-12-20T09:07:23;6.80;99.90
9925;DHT22;5001;51.674;7.868;2023-12-20T09:09:51;6.80;99.90
9925;DHT22;5001;51.674;7.868;2023-12-20T09:12:19;6.80;99.90
9925;DHT22;5001;51.674;7.868;2023-12-20T09:14:50;6.80;99.90
9925;DHT22;5001;51.674;7.868;2023-12-20T09:17:18;6.80;99.90
9925;DHT22;5001;51.674;7.868;2023-12-20T09:19:45;6.80;99.90
9925;DHT22;5001;51.674;7.868;2023-12-20T09:22:13;6.80;99.90
9925;DHT22;5001;51.674;7.868;2023-12-20T09:24:40;6.80;99.90
9925;DHT22;5001;51.674;7.868;2023-12-20T09:27:07;6.90;99.90
9925;DHT22;5001;51.674;7.868;2023-12-20T09:29:34;6.90;99.90
9925;DHT22;5001;51.674;7.868;2023-12-20T09:32:01;6.90;99.90
9925;DHT22;5001;51.674;7.868;2023-12-20T09:34:28;6.90;99.90
9925;DHT22;5001;51.674;7.868;2023-12-20T09:36:56;7.00;99.90
9925;DHT22;5001;51.674;7.868;2023-12-20T09:39:23;7.00;99.90
9925;DHT22;5001;51.674;7.868;2023-12-20T09:42:01;7.00;99.90
9925;DHT22;5001;51.674;7.868;2023-12-20T09:44:29;7.00;99.90
9925;DHT22;5001;51.674;7.868;2023-12-20T09:46:57;7.10;99.90
9925;DHT22;5001;51.674;7.868;2023-12-20T09:49:25;7.10;99.90
9925;DHT22;5001;51.674;7.868;2023-12-20T09:51:54;7.20;99.90
9925;DHT22;5001;51.674;7.868;2023-12-20T09:54:22;7.20;99.90
9925;DHT22;5001;51.674;7.868;2023-12-20T09:56:49;7.20;99.90
9925;DHT22;5001;51.674;7.868;2023-12-20T09:59:17;7.30;99.90
9925;DHT22;5001;51.674;7.868;2023-12-20T10:01:44;7.20;99.90
9925;DHT22;5001;51.674;7.868;2023-12-20T10:04:12;7.20;99.90
9925;DHT22;5001;51.674;7.868;2023-12-20T10:06:55;7.20;99.90
9925;DHT22;5001;51.674;7.868;2023-12-20T10:09:24;7.20;99.90
9925;DHT22;5001;51.674;7.868;2023-12-20T10:11:54;7.40;99.90
9925;DHT22;5001;51.674;7.868;2023-12-20T10:14:21;7.40;99.90
9925;DHT22;5001;51.674;7.868;2023-12-20T10:16:50;7.40;99.90
9925;DHT22;5001;51.674;7.868;2023-12-20T10:19:17;7.40;99.90
9925;DHT22;5001;51.674;7.868;2023-12-20T10:21:47;7.40;99.90
9925;DHT22;5001;51.674;7.868;2023-12-20T10:24:18;7.30;99.90
9925;DHT22;5001;51.674;7.868;2023-12-20T10:26:45;7.40;99.90
9925;DHT22;5001;51.674;7.868;2023-12-20T10:29:12;7.30;99.90
9925;DHT22;5001;51.674;7.868;2023-12-20T10:31:39;7.30;99.90
9925;DHT22;5001;51.674;7.868;2023-12-20T10:34:06;7.30;99.90
9925;DHT22;5001;51.674;7.868;2023-12-20T10:36:33;7.30;99.90
9925;DHT22;5001;51.674;7.868;2023-12-20T10:39:01;7.30;99.90
9925;DHT22;5001;51.674;7.868;2023-12-20T10:41:31;7.30;99.90
9925;DHT22;5001;51.674;7.868;2023-12-20T10:44:02;7.20;99.90
9925;DHT22;5001;51.674;7.868;2023-12-20T10:46:31;7.30;99.90
9925;DHT22;5001;51.674;7.868;2023-12-20T10:49:02;7.30;99.90
9925;DHT22;5001;51.674;7.868;2023-12-20T10:51:30;7.40;99.90
9925;DHT22;5001;51.674;7.868;2023-12-20T10:53:57;7.40;99.90
9925;DHT22;5001;51.674;7.868;2023-12-20T10:56:25;7.40;99.90
9925;DHT22;5001;51.674;7.868;2023-12-20T10:58:57;7.30;99.90
9925;DHT22;5001;51.674;7.868;2023-12-20T11:01:29;7.40;99.90
9925;DHT22;5001;51.674;7.868;2023-12-20T11:03:57;7.30;99.90
9925;DHT22;5001;51.674;7.868;2023-12-20T11:06:53;7.40;99.90
9925;DHT22;5001;51.674;7.868;2023-12-20T11:09:25;7.40;99.90
9925;DHT22;5001;51.674;7.868;2023-12-20T11:14:27;7.50;99.90
9925;DHT22;5001;51.674;7.868;2023-12-20T11:17:08;7.60;99.90
9925;DHT22;5001;51.674;7.868;2023-12-20T11:19:38;7.50;99.90
9925;DHT22;5001;51.674;7.868;2023-12-20T11:22:05;7.50;99.90
9925;DHT22;5001;51.674;7.868;2023-12-20T11:24:33;7.50;99.90
9925;DHT22;5001;51.674;7.868;2023-12-20T11:27:00;7.50;99.90
9925;DHT22;5001;51.674;7.868;2023-12-20T11:29:37;7.50;99.90
9925;DHT22;5001;51.674;7.868;2023-12-20T11:34:59;7.60;99.90
9925;DHT22;5001;51.674;7.868;2023-12-20T11:37:30;7.60;99.90
9925;DHT22;5001;51.674;7.868;2023-12-20T11:40:06;7.60;99.90
9925;DHT22;5001;51.674;7.868;2023-12-20T11:42:44;7.70;99.90
9925;DHT22;5001;51.674;7.868;2023-12-20T11:45:17;7.70;99.90
9925;DHT22;5001;51.674;7.868;2023-12-20T11:47:47;7.70;99.90
9925;DHT22;5001;51.674;7.868;2023-12-20T11:50:18;7.60;99.90
9925;DHT22;5001;51.674;7.868;2023-12-20T11:52:46;7.70;99.90
9925;DHT22;5001;51.674;7.868;2023-12-20T11:55:13;7.60;99.90
9925;DHT22;5001;51.674;7.868;2023-12-20T11:57:43;7.50;99.90
9925;DHT22;5001;51.674;7.868;2023-12-20T12:00:13;7.50;99.90
9925;DHT22;5001;51.674;7.868;2023-12-20T12:02:40;7.60;99.90
9925;DHT22;5001;51.674;7.868;2023-12-20T12:05:08;7.80;99.90
9925;DHT22;5001;51.674;7.868;2023-12-20T12:07:36;8.10;99.90
9925;DHT22;5001;51.674;7.868;2023-12-20T12:10:03;9.00;99.90
9925;DHT22;5001;51.674;7.868;2023-12-20T12:12:30;9.30;99.90
9925;DHT22;5001;51.674;7.868;2023-12-20T12:14:59;9.30;99.90
9925;DHT22;5001;51.674;7.868;2023-12-20T12:17:26;9.20;99.90
9925;DHT22;5001;51.674;7.868;2023-12-20T12:20:03;9.20;99.90
9925;DHT22;5001;51.674;7.868;2023-12-20T12:22:31;9.30;99.90
9925;DHT22;5001;51.674;7.868;2023-12-20T12:25:09;9.50;99.90
9925;DHT22;5001;51.674;7.868;2023-12-20T12:27:40;9.40;99.90
9925;DHT22;5001;51.674;7.868;2023-12-20T12:30:08;8.90;99.90
9925;DHT22;5001;51.674;7.868;2023-12-20T12:32:36;8.90;99.90
9925;DHT22;5001;51.674;7.868;2023-12-20T12:35:04;8.80;99.90
9925;DHT22;5001;51.674;7.868;2023-12-20T12:37:38;9.20;99.90
9925;DHT22;5001;51.674;7.868;2023-12-20T12:40:16;9.00;99.90
9925;DHT22;5001;51.674;7.868;2023-12-20T12:42:44;9.40;99.90
9925;DHT22;5001;51.674;7.868;2023-12-20T12:45:12;9.60;99.90
9925;DHT22;5001;51.674;7.868;2023-12-20T12:47:39;9.70;99.90
9925;DHT22;5001;51.674;7.868;2023-12-20T12:50:07;9.00;99.90
9925;DHT22;5001;51.674;7.868;2023-12-20T12:52:35;8.50;99.90
9925;DHT22;5001;51.674;7.868;2023-12-20T12:55:02;8.20;99.90
9925;DHT22;5001;51.674;7.868;2023-12-20T12:57:32;8.00;99.90
9925;DHT22;5001;51.674;7.868;2023-12-20T12:59:59;7.80;99.90
9925;DHT22;5001;51.674;7.868;2023-12-20T13:02:27;7.90;99.90
9925;DHT22;5001;51.674;7.868;2023-12-20T13:04:54;8.00;99.90
9925;DHT22;5001;51.674;7.868;2023-12-20T13:07:21;7.90;99.90
9925;DHT22;5001;51.674;7.868;2023-12-20T13:09:48;8.00;99.90
9925;DHT22;5001;51.674;7.868;2023-12-20T13:12:15;8.00;99.90
9925;DHT22;5001;51.674;7.868;2023-12-20T13:14:42;8.10;99.90
9925;DHT22;5001;51.674;7.868;2023-12-20T13:17:09;8.10;99.90
9925;DHT22;5001;51.674;7.868;2023-12-20T13:19:36;8.20;99.90
9925;DHT22;5001;51.674;7.868;2023-12-20T13:22:03;8.10;99.90
9925;DHT22;5001;51.674;7.868;2023-12-20T13:24:31;8.00;99.90
9925;DHT22;5001;51.674;7.868;2023-12-20T13:26:59;7.90;99.90
9925;DHT22;5001;51.674;7.868;2023-12-20T13:29:26;7.90;99.90
9925;DHT22;5001;51.674;7.868;2023-12-20T13:31:56;8.00;99.90
9925;DHT22;5001;51.674;7.868;2023-12-20T13:34:23;8.00;99.90
9925;DHT22;5001;51.674;7.868;2023-12-20T13:36:50;8.00;99.90
9925;DHT22;5001;51.674;7.868;2023-12-20T13:39:18;8.00;99.90
9925;DHT22;5001;51.674;7.868;2023-12-20T13:41:45;8.00;99.90
9925;DHT22;5001;51.674;7.868;2023-12-20T13:44:12;8.00;99.90
9925;DHT22;5001;51.674;7.868;2023-12-20T13:46:40;8.10;99.90
9925;DHT22;5001;51.674;7.868;2023-12-20T13:49:07;8.10;99.90
9925;DHT22;5001;51.674;7.868;2023-12-20T13:51:35;8.10;99.90
9925;DHT22;5001;51.674;7.868;2023-12-20T13:54:02;8.10;99.90
9925;DHT22;5001;51.674;7.868;2023-12-20T13:56:29;8.10;99.90
9925;DHT22;5001;51.674;7.868;2023-12-20T13:58:56;8.00;99.90
9925;DHT22;5001;51.674;7.868;2023-12-20T14:01:23;8.00;99.90
9925;DHT22;5001;51.674;7.868;2023-12-20T14:03:51;7.90;99.90
9925;DHT22;5001;51.674;7.868;2023-12-20T14:06:18;7.90;99.90
9925;DHT22;5001;51.674;7.868;2023-12-20T14:08:45;7.90;99.90
9925;DHT22;5001;51.674;7.868;2023-12-20T14:11:12;7.90;99.90
9925;DHT22;5001;51.674;7.868;2023-12-20T14:13:40;7.80;99.90
9925;DHT22;5001;51.674;7.868;2023-12-20T14:16:07;7.60;99.90
9925;DHT22;5001;51.674;7.868;2023-12-20T14:18:34;7.60;99.90
9925;DHT22;5001;51.674;7.868;2023-12-20T14:21:01;7.60;99.90
9925;DHT22;5001;51.674;7.868;2023-12-20T14:23:28;7.60;99.90
9925;DHT22;5001;51.674;7.868;2023-12-20T14:25:55;7.60;99.90
9925;DHT22;5001;51.674;7.868;2023-12-20T14:28:25;7.60;99.90
9925;DHT22;5001;51.674;7.868;2023-12-20T14:30:52;7.60;99.90
9925;DHT22;5001;51.674;7.868;2023-12-20T14:33:20;7.50;99.90
9925;DHT22;5001;51.674;7.868;2023-12-20T14:35:48;7.50;99.90
9925;DHT22;5001;51.674;7.868;2023-12-20T14:38:15;7.50;99.90
9925;DHT22;5001;51.674;7.868;2023-12-20T14:40:42;7.60;99.90
9925;DHT22;5001;51.674;7.868;2023-12-20T14:43:09;7.60;99.90
9925;DHT22;5001;51.674;7.868;2023-12-20T14:45:37;7.60;99.90
9925;DHT22;5001;51.674;7.868;2023-12-20T14:48:04;7.70;99.90
9925;DHT22;5001;51.674;7.868;2023-12-20T14:50:31;7.70;99.90
9925;DHT22;5001;51.674;7.868;2023-12-20T14:52:58;7.70;99.90
9925;DHT22;5001;51.674;7.868;2023-12-20T14:55:26;7.60;99.90
9925;DHT22;5001;51.674;7.868;2023-12-20T14:57:57;7.70;99.90
9925;DHT22;5001;51.674;7.868;2023-12-20T15:00:24;7.60;99.90
9925;DHT22;5001;51.674;7.868;2023-12-20T15:02:51;7.60;99.90
9925;DHT22;5001;51.674;7.868;2023-12-20T15:05:18;7.60;99.90
9925;DHT22;5001;51.674;7.868;2023-12-20T15:07:45;7.60;99.90
9925;DHT22;5001;51.674;7.868;2023-12-20T15:10:15;7.60;99.90
9925;DHT22;5001;51.674;7.868;2023-12-20T15:12:44;7.60;99.90
9925;DHT22;5001;51.674;7.868;2023-12-20T15:15:11;7.50;99.90
9925;DHT22;5001;51.674;7.868;2023-12-20T15:17:39;7.50;99.90
9925;DHT22;5001;51.674;7.868;2023-12-20T15:20:06;7.50;99.90
9925;DHT22;5001;51.674;7.868;2023-12-20T15:22:37;7.40;99.90
9925;DHT22;5001;51.674;7.868;2023-12-20T15:25:05;7.50;99.90
9925;DHT22;5001;51.674;7.868;2023-12-20T15:27:35;7.40;99.90
9925;DHT22;5001;51.674;7.868;2023-12-20T15:30:06;7.40;99.90
9925;DHT22;5001;51.674;7.868;2023-12-20T15:32:36;7.40;99.90
9925;DHT22;5001;51.674;7.868;2023-12-20T15:35:04;7.40;99.90
9925;DHT22;5001;51.674;7.868;2023-12-20T15:37:31;7.40;99.90
9925;DHT22;5001;51.674;7.868;2023-12-20T15:39:59;7.40;99.90
9925;DHT22;5001;51.674;7.868;2023-12-20T15:42:30;7.30;99.90
9925;DHT22;5001;51.674;7.868;2023-12-20T15:44:58;7.40;99.90
9925;DHT22;5001;51.674;7.868;2023-12-20T15:47:25;7.30;99.90
9925;DHT22;5001;51.674;7.868;2023-12-20T15:49:52;7.40;99.90
9925;DHT22;5001;51.674;7.868;2023-12-20T15:52:20;7.40;99.90
9925;DHT22;5001;51.674;7.868;2023-12-20T15:54:47;7.40;99.90
9925;DHT22;5001;51.674;7.868;2023-12-20T15:57:15;7.40;99.90
9925;DHT22;5001;51.674;7.868;2023-12-20T15:59:42;7.40;99.90
9925;DHT22;5001;51.674;7.868;2023-12-20T16:02:09;7.40;99.90
9925;DHT22;5001;51.674;7.868;2023-12-20T16:04:37;7.40;99.90
9925;DHT22;5001;51.674;7.868;2023-12-20T16:07:04;7.40;99.90
9925;DHT22;5001;51.674;7.868;2023-12-20T16:09:31;7.40;99.90
9925;DHT22;5001;51.674;7.868;2023-12-20T16:11:58;7.40;99.90
9925;DHT22;5001;51.674;7.868;2023-12-20T16:14:25;7.40;99.90
9925;DHT22;5001;51.674;7.868;2023-12-20T16:16:56;7.50;99.90
9925;DHT22;5001;51.674;7.868;2023-12-20T16:19:23;7.50;99.90
9925;DHT22;5001;51.674;7.868;2023-12-20T16:21:50;7.40;99.90
9925;DHT22;5001;51.674;7.868;2023-12-20T16:24:17;7.50;99.90
9925;DHT22;5001;51.674;7.868;2023-12-20T16:26:44;7.50;99.90
9925;DHT22;5001;51.674;7.868;2023-12-20T16:29:11;7.50;99.90
9925;DHT22;5001;51.674;7.868;2023-12-20T16:31:39;7.50;99.90
9925;DHT22;5001;51.674;7.868;2023-12-20T16:34:06;7.50;99.90